New Haven, CT

12:07 AM EDT on September 03, 2014 (GMT -0400)
Rock Hill | Change Station
CLOSE
Current Station
Personal Weather Station
Location: New Haven, CT
Elevation: 128 ft
Nearby Weather Stations

Elev 128 ft 41.30 °N, 72.88 °W | Updated 6 minutes ago

Clear
Clear
79.0 °F
Feels Like 82 °F
N
1.0
Wind Variable Wind from WNW
Gusts 4.0 mph

Today
High -- | Low -- °F
--% Chance of Precip.
Yesterday
High -- | Low -- °F
Precip. -- in
6:20 AM 7:21 PM
First Quarter, 58% visible
Pressure 29.76 in
Visibility 10.0 miles
Clouds Clear
Heat Index 82 °F
Dew Point 74 °F
Humidity 83%
Rainfall 0.00 in
Snow Depth Not available.
UV 0 out of 12
Pollen 6.90 out of 12
Ozone Good
PM2.5 Moderate
Flu Activity Not available.
METAR KHVN 030353Z AUTO 21008G16KT 10SM CLR 28/22 A2976 RMK AO2 SLP078 T02780222

More Conditions Fewer Conditions

Pressure 29.76 in
Visibility 10.0 miles
Clouds Clear
Heat Index 82 °F
Dew Point 74 °F
Humidity 83%
Rainfall 0.00 in
Snow Depth Not available.
UV 0 out of 12
Pollen 6.90 out of 12
Ozone Good
PM2.5 Moderate
Flu Activity Not available.
METAR KHVN 030353Z AUTO 21008G16KT 10SM CLR 28/22 A2976 RMK AO2 SLP078 T02780222

More Conditions Fewer Conditions

10-Day Weather Forecast

Almanac

Astronomy

Sep. 03, 2014 Rise Set
Actual Time 6:20 AM EDT 7:21 PM EDT
Civil Twilight 5:51 AM EDT 7:49 PM EDT
Nautical Twilight 5:18 AM EDT 8:23 PM EDT
Astronomical Twilight 4:42 AM EDT 8:58 PM EDT
Moon 3:02 PM EDT 12:09 AM EDT
Length of Visible Light 13h 57m
Length of Day
13h 01m
Tomorrow will be 2m 39s shorter.
First Quarter, 58% of the Moon is Illuminated
Today
First Quarter
Sep 8
Full
Sep 15
Last Quarter
Sep 24
New
Oct 1
First Quarter

Yesterday's Extremes

State Highs State Lows

Community

WunderPhotos

Upload Photos

1,749,866 photos uploaded!

Nearby

Air Quality

  Air Quality AQ Index Pollutant
Yesterday Good
OZONE
Yesterday Good
PM10
Current Moderate
PM2.5
Current Good
OZONE
Tuesday Unhealthy for Sensitive Groups
OZONE
Tuesday Moderate
PM2.5
Wednesday Good
OZONE
Wednesday Good
PM2.5

Snow Depth

Station Depth Elevation
No new snow has been reported.

Earthquake Activity

City Distance Mag. Time & Date
No recent earthquake activity has been reported nearby.
Minimum magnitude displayed is 2.5.

Coastal Water Temperatures

Place Temperature
Kings Point, NY 75.0 °F
Bridgeport, CT 78.1 °F

Nearby Weather Stations